sensor_id;sensor_type;location;lat;lon;timestamp;pressure;altitude;pressure_sealevel;temperature;humidity
37304;BME280;23188;51.188;16.374;2023-01-28T00:00:43;101003.44;;;2.75;100.00
37304;BME280;23188;51.188;16.374;2023-01-28T00:04:59;101007.66;;;2.74;100.00
37304;BME280;23188;51.188;16.374;2023-01-28T00:09:34;101004.81;;;2.75;100.00
37304;BME280;23188;51.188;16.374;2023-01-28T00:13:38;101004.58;;;2.67;100.00
37304;BME280;23188;51.188;16.374;2023-01-28T00:17:48;101000.98;;;2.65;100.00
37304;BME280;23188;51.188;16.374;2023-01-28T00:21:51;101003.85;;;2.73;100.00
37304;BME280;23188;51.188;16.374;2023-01-28T00:30:56;101001.27;;;2.57;100.00
37304;BME280;23188;51.188;16.374;2023-01-28T00:35:07;101003.77;;;2.51;100.00
37304;BME280;23188;51.188;16.374;2023-01-28T00:39:13;101001.10;;;2.47;100.00
37304;BME280;23188;51.188;16.374;2023-01-28T00:43:19;101000.98;;;2.36;100.00
37304;BME280;23188;51.188;16.374;2023-01-28T00:53:17;100997.42;;;2.18;100.00
37304;BME280;23188;51.188;16.374;2023-01-28T00:57:20;100997.73;;;2.14;100.00
37304;BME280;23188;51.188;16.374;2023-01-28T01:01:26;100996.52;;;2.03;100.00
37304;BME280;23188;51.188;16.374;2023-01-28T01:05:29;101002.33;;;1.97;100.00
37304;BME280;23188;51.188;16.374;2023-01-28T01:09:32;100995.77;;;2.00;100.00
37304;BME280;23188;51.188;16.374;2023-01-28T01:13:35;100998.44;;;1.99;100.00
37304;BME280;23188;51.188;16.374;2023-01-28T01:17:40;101004.81;;;1.96;100.00
37304;BME280;23188;51.188;16.374;2023-01-28T01:26:40;101011.30;;;1.80;100.00
37304;BME280;23188;51.188;16.374;2023-01-28T01:30:43;101011.94;;;1.77;100.00
37304;BME280;23188;51.188;16.374;2023-01-28T01:34:52;101016.10;;;1.72;100.00
37304;BME280;23188;51.188;16.374;2023-01-28T01:39:28;101030.67;;;1.65;100.00
37304;BME280;23188;51.188;16.374;2023-01-28T01:44:05;101034.55;;;1.59;100.00
37304;BME280;23188;51.188;16.374;2023-01-28T01:48:19;101040.38;;;1.57;100.00
37304;BME280;23188;51.188;16.374;2023-01-28T01:52:26;101038.71;;;1.49;100.00
37304;BME280;23188;51.188;16.374;2023-01-28T01:56:38;101040.23;;;1.45;100.00
37304;BME280;23188;51.188;16.374;2023-01-28T02:00:43;101044.05;;;1.40;100.00
37304;BME280;23188;51.188;16.374;2023-01-28T02:04:46;101041.86;;;1.37;100.00
37304;BME280;23188;51.188;16.374;2023-01-28T02:08:53;101048.21;;;1.36;100.00
37304;BME280;23188;51.188;16.374;2023-01-28T02:12:58;101052.14;;;1.33;100.00
37304;BME280;23188;51.188;16.374;2023-01-28T02:17:01;101047.04;;;1.34;100.00
37304;BME280;23188;51.188;16.374;2023-01-28T02:29:55;101054.23;;;1.21;100.00
37304;BME280;23188;51.188;16.374;2023-01-28T02:34:10;101056.50;;;1.16;100.00
37304;BME280;23188;51.188;16.374;2023-01-28T02:38:32;101051.81;;;1.14;100.00
37304;BME280;23188;51.188;16.374;2023-01-28T02:42:38;101053.56;;;1.14;100.00
37304;BME280;23188;51.188;16.374;2023-01-28T02:46:43;101054.41;;;1.16;100.00
37304;BME280;23188;51.188;16.374;2023-01-28T02:55:41;101056.25;;;1.24;100.00
37304;BME280;23188;51.188;16.374;2023-01-28T02:59:56;101062.13;;;1.26;100.00
37304;BME280;23188;51.188;16.374;2023-01-28T03:04:18;101062.05;;;1.23;100.00
37304;BME280;23188;51.188;16.374;2023-01-28T03:08:23;101064.85;;;1.29;100.00
37304;BME280;23188;51.188;16.374;2023-01-28T03:12:48;101069.23;;;1.28;100.00
37304;BME280;23188;51.188;16.374;2023-01-28T03:17:33;101065.73;;;1.23;100.00
37304;BME280;23188;51.188;16.374;2023-01-28T03:21:58;101066.83;;;1.21;100.00
37304;BME280;23188;51.188;16.374;2023-01-28T03:26:21;101064.66;;;1.23;100.00
37304;BME280;23188;51.188;16.374;2023-01-28T03:31:02;101065.51;;;1.30;100.00
37304;BME280;23188;51.188;16.374;2023-01-28T03:35:29;101073.80;;;1.39;100.00
37304;BME280;23188;51.188;16.374;2023-01-28T03:39:52;101073.51;;;1.43;100.00
37304;BME280;23188;51.188;16.374;2023-01-28T03:44:11;101074.45;;;1.40;100.00
37304;BME280;23188;51.188;16.374;2023-01-28T03:48:33;101069.91;;;1.35;100.00
37304;BME280;23188;51.188;16.374;2023-01-28T03:52:36;101073.27;;;1.33;100.00
37304;BME280;23188;51.188;16.374;2023-01-28T03:56:41;101075.65;;;1.36;100.00
37304;BME280;23188;51.188;16.374;2023-01-28T04:00:44;101079.89;;;1.34;100.00
37304;BME280;23188;51.188;16.374;2023-01-28T04:04:47;101084.82;;;1.33;100.00
37304;BME280;23188;51.188;16.374;2023-01-28T04:08:53;101083.07;;;1.33;100.00
37304;BME280;23188;51.188;16.374;2023-01-28T04:13:01;101084.23;;;1.29;100.00
37304;BME280;23188;51.188;16.374;2023-01-28T04:17:05;101084.09;;;1.28;100.00
37304;BME280;23188;51.188;16.374;2023-01-28T04:21:10;101090.11;;;1.25;100.00
37304;BME280;23188;51.188;16.374;2023-01-28T04:25:13;101094.51;;;1.24;100.00
37304;BME280;23188;51.188;16.374;2023-01-28T04:29:17;101090.09;;;1.26;100.00
37304;BME280;23188;51.188;16.374;2023-01-28T04:33:20;101097.33;;;1.24;100.00
37304;BME280;23188;51.188;16.374;2023-01-28T04:37:24;101098.02;;;1.18;100.00
37304;BME280;23188;51.188;16.374;2023-01-28T04:41:27;101097.34;;;1.17;100.00
37304;BME280;23188;51.188;16.374;2023-01-28T04:45:30;101094.82;;;1.20;100.00
37304;BME280;23188;51.188;16.374;2023-01-28T04:49:34;101095.65;;;1.22;100.00
37304;BME280;23188;51.188;16.374;2023-01-28T04:53:37;101104.00;;;1.23;100.00
37304;BME280;23188;51.188;16.374;2023-01-28T04:57:41;101107.23;;;1.20;99.82
37304;BME280;23188;51.188;16.374;2023-01-28T05:01:45;101108.48;;;1.19;99.56
37304;BME280;23188;51.188;16.374;2023-01-28T05:05:49;101109.64;;;1.21;99.63
37304;BME280;23188;51.188;16.374;2023-01-28T05:09:52;101111.77;;;1.20;99.37
37304;BME280;23188;51.188;16.374;2023-01-28T05:13:56;101117.91;;;1.13;98.57
37304;BME280;23188;51.188;16.374;2023-01-28T05:17:59;101123.44;;;1.09;98.63
37304;BME280;23188;51.188;16.374;2023-01-28T05:22:03;101123.27;;;1.08;98.95
37304;BME280;23188;51.188;16.374;2023-01-28T05:26:06;101129.34;;;1.10;99.14
37304;BME280;23188;51.188;16.374;2023-01-28T05:30:10;101126.64;;;1.13;98.74
37304;BME280;23188;51.188;16.374;2023-01-28T05:34:13;101129.59;;;1.13;99.21
37304;BME280;23188;51.188;16.374;2023-01-28T05:38:16;101132.39;;;1.13;99.46
37304;BME280;23188;51.188;16.374;2023-01-28T05:42:19;101135.10;;;1.10;99.30
37304;BME280;23188;51.188;16.374;2023-01-28T05:46:24;101135.70;;;1.07;98.97
37304;BME280;23188;51.188;16.374;2023-01-28T05:50:27;101137.58;;;1.03;99.05
37304;BME280;23188;51.188;16.374;2023-01-28T05:54:30;101141.10;;;1.02;99.50
37304;BME280;23188;51.188;16.374;2023-01-28T05:58:34;101140.61;;;1.01;100.00
37304;BME280;23188;51.188;16.374;2023-01-28T06:02:40;101143.74;;;0.95;100.00
37304;BME280;23188;51.188;16.374;2023-01-28T06:06:44;101143.09;;;0.93;100.00
37304;BME280;23188;51.188;16.374;2023-01-28T06:10:48;101145.92;;;0.86;100.00
37304;BME280;23188;51.188;16.374;2023-01-28T06:14:53;101154.73;;;0.82;100.00
37304;BME280;23188;51.188;16.374;2023-01-28T06:18:56;101157.46;;;0.78;100.00
37304;BME280;23188;51.188;16.374;2023-01-28T06:22:59;101153.42;;;0.73;100.00
37304;BME280;23188;51.188;16.374;2023-01-28T06:27:03;101153.78;;;0.73;100.00
37304;BME280;23188;51.188;16.374;2023-01-28T06:31:07;101158.23;;;0.76;100.00
37304;BME280;23188;51.188;16.374;2023-01-28T06:35:10;101165.61;;;0.81;100.00
37304;BME280;23188;51.188;16.374;2023-01-28T06:39:13;101171.87;;;0.81;100.00
37304;BME280;23188;51.188;16.374;2023-01-28T06:43:17;101182.70;;;0.81;100.00
37304;BME280;23188;51.188;16.374;2023-01-28T06:47:20;101184.98;;;0.81;100.00
37304;BME280;23188;51.188;16.374;2023-01-28T06:51:25;101186.20;;;0.75;100.00
37304;BME280;23188;51.188;16.374;2023-01-28T06:55:30;101190.00;;;0.70;100.00
37304;BME280;23188;51.188;16.374;2023-01-28T06:59:34;101188.64;;;0.68;100.00
37304;BME280;23188;51.188;16.374;2023-01-28T07:03:37;101190.99;;;0.65;100.00
37304;BME280;23188;51.188;16.374;2023-01-28T07:07:40;101197.81;;;0.64;100.00
37304;BME280;23188;51.188;16.374;2023-01-28T07:11:44;101201.48;;;0.64;100.00
37304;BME280;23188;51.188;16.374;2023-01-28T07:15:49;101210.63;;;0.62;100.00
37304;BME280;23188;51.188;16.374;2023-01-28T07:19:53;101211.90;;;0.60;100.00
37304;BME280;23188;51.188;16.374;2023-01-28T07:23:56;101214.64;;;0.62;100.00
37304;BME280;23188;51.188;16.374;2023-01-28T07:28:00;101213.05;;;0.63;100.00
37304;BME280;23188;51.188;16.374;2023-01-28T07:32:03;101221.27;;;0.55;100.00
37304;BME280;23188;51.188;16.374;2023-01-28T07:36:09;101220.88;;;0.56;100.00
37304;BME280;23188;51.188;16.374;2023-01-28T07:40:12;101221.27;;;0.55;99.97
37304;BME280;23188;51.188;16.374;2023-01-28T07:44:16;101220.22;;;0.55;99.85
37304;BME280;23188;51.188;16.374;2023-01-28T07:48:19;101217.38;;;0.57;99.99
37304;BME280;23188;51.188;16.374;2023-01-28T07:52:23;101217.45;;;0.54;98.93
37304;BME280;23188;51.188;16.374;2023-01-28T07:56:26;101220.39;;;0.55;99.53
37304;BME280;23188;51.188;16.374;2023-01-28T08:00:33;101220.02;;;0.56;98.93
37304;BME280;23188;51.188;16.374;2023-01-28T08:04:43;101224.23;;;0.55;98.01
37304;BME280;23188;51.188;16.374;2023-01-28T08:08:47;101222.95;;;0.57;98.80
37304;BME280;23188;51.188;16.374;2023-01-28T08:12:51;101228.30;;;0.60;97.52
37304;BME280;23188;51.188;16.374;2023-01-28T08:16:56;101229.30;;;0.62;96.97
37304;BME280;23188;51.188;16.374;2023-01-28T08:20:59;101232.06;;;0.63;96.33
37304;BME280;23188;51.188;16.374;2023-01-28T08:25:03;101233.59;;;0.65;95.97
37304;BME280;23188;51.188;16.374;2023-01-28T08:29:05;101234.70;;;0.62;95.60
37304;BME280;23188;51.188;16.374;2023-01-28T08:33:12;101230.56;;;0.67;96.63
37304;BME280;23188;51.188;16.374;2023-01-28T08:37:16;101232.40;;;0.70;96.51
37304;BME280;23188;51.188;16.374;2023-01-28T08:41:20;101238.39;;;0.69;96.26
37304;BME280;23188;51.188;16.374;2023-01-28T08:45:25;101238.11;;;0.73;95.46
37304;BME280;23188;51.188;16.374;2023-01-28T08:49:29;101235.68;;;0.72;95.31
37304;BME280;23188;51.188;16.374;2023-01-28T08:53:32;101234.54;;;0.76;96.64
37304;BME280;23188;51.188;16.374;2023-01-28T08:57:36;101241.29;;;0.78;94.90
37304;BME280;23188;51.188;16.374;2023-01-28T09:01:39;101242.80;;;0.80;94.81
37304;BME280;23188;51.188;16.374;2023-01-28T09:05:42;101250.17;;;0.79;94.32
37304;BME280;23188;51.188;16.374;2023-01-28T09:09:46;101251.80;;;0.77;93.83
37304;BME280;23188;51.188;16.374;2023-01-28T09:13:49;101252.48;;;0.77;94.12
37304;BME280;23188;51.188;16.374;2023-01-28T09:17:57;101258.05;;;0.78;94.13
37304;BME280;23188;51.188;16.374;2023-01-28T09:22:03;101262.71;;;0.81;93.91
37304;BME280;23188;51.188;16.374;2023-01-28T09:26:06;101266.03;;;0.80;93.18
37304;BME280;23188;51.188;16.374;2023-01-28T09:30:12;101260.94;;;0.82;93.93
37304;BME280;23188;51.188;16.374;2023-01-28T09:34:16;101264.55;;;0.84;92.96
37304;BME280;23188;51.188;16.374;2023-01-28T09:38:19;101270.23;;;0.87;92.91
37304;BME280;23188;51.188;16.374;2023-01-28T09:42:29;101273.60;;;0.85;92.21
37304;BME280;23188;51.188;16.374;2023-01-28T09:46:36;101279.64;;;0.81;91.69
37304;BME280;23188;51.188;16.374;2023-01-28T09:50:43;101281.86;;;0.75;90.83
37304;BME280;23188;51.188;16.374;2023-01-28T09:55:12;101285.26;;;0.73;90.77
37304;BME280;23188;51.188;16.374;2023-01-28T09:59:33;101280.44;;;0.76;90.78
37304;BME280;23188;51.188;16.374;2023-01-28T10:09:45;101283.21;;;0.84;90.20
37304;BME280;23188;51.188;16.374;2023-01-28T10:14:00;101278.23;;;0.88;90.07
37304;BME280;23188;51.188;16.374;2023-01-28T10:18:10;101271.79;;;0.94;90.35
37304;BME280;23188;51.188;16.374;2023-01-28T10:22:43;101271.58;;;1.03;90.20
37304;BME280;23188;51.188;16.374;2023-01-28T10:26:48;101270.98;;;1.12;88.63
37304;BME280;23188;51.188;16.374;2023-01-28T10:30:53;101272.59;;;1.17;88.30
37304;BME280;23188;51.188;16.374;2023-01-28T10:35:03;101274.23;;;1.21;89.23
37304;BME280;23188;51.188;16.374;2023-01-28T10:44:48;101280.24;;;1.19;85.40
37304;BME280;23188;51.188;16.374;2023-01-28T10:53:35;101281.58;;;1.21;84.66
37304;BME280;23188;51.188;16.374;2023-01-28T11:02:24;101284.17;;;1.35;85.74
37304;BME280;23188;51.188;16.374;2023-01-28T11:06:31;101281.08;;;1.40;85.12
37304;BME280;23188;51.188;16.374;2023-01-28T11:10:37;101274.03;;;1.41;85.22
37304;BME280;23188;51.188;16.374;2023-01-28T11:21:02;101280.89;;;1.34;84.15
37304;BME280;23188;51.188;16.374;2023-01-28T11:26:36;101278.29;;;1.33;83.34
37304;BME280;23188;51.188;16.374;2023-01-28T11:56:55;101283.30;;;1.15;82.90
37304;BME280;23188;51.188;16.374;2023-01-28T12:01:41;101282.84;;;1.13;82.64
37304;BME280;23188;51.188;16.374;2023-01-28T12:05:54;101281.75;;;1.08;82.66
37304;BME280;23188;51.188;16.374;2023-01-28T12:18:38;101268.92;;;1.11;84.77
37304;BME280;23188;51.188;16.374;2023-01-28T12:23:09;101271.45;;;1.07;82.62
37304;BME280;23188;51.188;16.374;2023-01-28T13:11:18;101277.66;;;1.24;78.72
37304;BME280;23188;51.188;16.374;2023-01-28T13:21:02;101279.55;;;1.19;80.75
37304;BME280;23188;51.188;16.374;2023-01-28T13:25:33;101285.19;;;1.03;81.87
37304;BME280;23188;51.188;16.374;2023-01-28T13:29:36;101286.55;;;0.91;82.61
37304;BME280;23188;51.188;16.374;2023-01-28T13:33:40;101292.15;;;0.77;81.98
37304;BME280;23188;51.188;16.374;2023-01-28T13:37:47;101292.30;;;0.55;84.41
37304;BME280;23188;51.188;16.374;2023-01-28T13:41:51;101297.79;;;0.52;83.55
37304;BME280;23188;51.188;16.374;2023-01-28T13:51:30;101296.22;;;0.66;84.12
37304;BME280;23188;51.188;16.374;2023-01-28T13:55:38;101297.23;;;0.75;82.37
37304;BME280;23188;51.188;16.374;2023-01-28T14:20:44;101331.92;;;0.48;79.95
37304;BME280;23188;51.188;16.374;2023-01-28T14:24:51;101334.90;;;0.39;80.37
37304;BME280;23188;51.188;16.374;2023-01-28T14:33:12;101337.69;;;0.24;79.49
37304;BME280;23188;51.188;16.374;2023-01-28T14:37:18;101335.78;;;0.23;80.36
37304;BME280;23188;51.188;16.374;2023-01-28T14:41:25;101337.00;;;0.23;80.30
37304;BME280;23188;51.188;16.374;2023-01-28T14:46:29;101342.50;;;0.11;78.30
37304;BME280;23188;51.188;16.374;2023-01-28T14:56:16;101348.77;;;0.03;78.72
37304;BME280;23188;51.188;16.374;2023-01-28T15:00:28;101345.70;;;-0.00;78.11
37304;BME280;23188;51.188;16.374;2023-01-28T15:04:33;101347.48;;;0.06;79.32
37304;BME280;23188;51.188;16.374;2023-01-28T15:08:36;101354.11;;;0.06;80.89
37304;BME280;23188;51.188;16.374;2023-01-28T15:12:45;101355.64;;;-0.09;83.38
37304;BME280;23188;51.188;16.374;2023-01-28T15:16:49;101358.13;;;-0.21;84.93
37304;BME280;23188;51.188;16.374;2023-01-28T15:20:54;101353.75;;;-0.28;84.74
37304;BME280;23188;51.188;16.374;2023-01-28T15:24:57;101355.54;;;-0.22;85.55
37304;BME280;23188;51.188;16.374;2023-01-28T15:33:36;101354.77;;;-0.18;84.24
37304;BME280;23188;51.188;16.374;2023-01-28T15:37:39;101355.71;;;-0.21;83.77
37304;BME280;23188;51.188;16.374;2023-01-28T15:41:45;101360.48;;;-0.24;83.85
37304;BME280;23188;51.188;16.374;2023-01-28T15:45:52;101362.41;;;-0.25;83.01
37304;BME280;23188;51.188;16.374;2023-01-28T15:50:00;101357.52;;;-0.16;84.26
37304;BME280;23188;51.188;16.374;2023-01-28T15:54:08;101354.46;;;-0.20;83.34
37304;BME280;23188;51.188;16.374;2023-01-28T15:58:26;101363.87;;;-0.11;83.39
37304;BME280;23188;51.188;16.374;2023-01-28T16:02:30;101360.67;;;-0.08;83.51
37304;BME280;23188;51.188;16.374;2023-01-28T16:06:38;101356.01;;;-0.10;84.39
37304;BME280;23188;51.188;16.374;2023-01-28T16:10:53;101361.85;;;-0.15;84.83
37304;BME280;23188;51.188;16.374;2023-01-28T16:14:59;101364.64;;;-0.24;85.59
37304;BME280;23188;51.188;16.374;2023-01-28T16:19:05;101365.42;;;-0.28;86.45
37304;BME280;23188;51.188;16.374;2023-01-28T16:23:19;101366.80;;;-0.27;86.54
37304;BME280;23188;51.188;16.374;2023-01-28T16:27:25;101361.55;;;-0.26;86.85
37304;BME280;23188;51.188;16.374;2023-01-28T16:31:28;101354.25;;;-0.18;87.36
37304;BME280;23188;51.188;16.374;2023-01-28T16:35:32;101349.70;;;-0.09;87.81
37304;BME280;23188;51.188;16.374;2023-01-28T16:39:56;101348.33;;;-0.01;87.38
37304;BME280;23188;51.188;16.374;2023-01-28T16:44:03;101333.77;;;0.11;86.79
37304;BME280;23188;51.188;16.374;2023-01-28T16:48:07;101331.91;;;0.17;85.75
37304;BME280;23188;51.188;16.374;2023-01-28T16:52:44;101330.78;;;0.21;85.65
37304;BME280;23188;51.188;16.374;2023-01-28T16:56:48;101331.85;;;0.28;86.29
37304;BME280;23188;51.188;16.374;2023-01-28T17:00:50;101332.52;;;0.36;86.36
37304;BME280;23188;51.188;16.374;2023-01-28T17:04:59;101329.45;;;0.41;85.03
37304;BME280;23188;51.188;16.374;2023-01-28T17:09:05;101330.45;;;0.44;85.52
37304;BME280;23188;51.188;16.374;2023-01-28T17:13:08;101330.89;;;0.55;85.88
37304;BME280;23188;51.188;16.374;2023-01-28T17:21:43;101342.71;;;0.56;85.09
37304;BME280;23188;51.188;16.374;2023-01-28T17:25:45;101355.48;;;0.55;84.62
37304;BME280;23188;51.188;16.374;2023-01-28T17:29:48;101352.45;;;0.59;84.20
37304;BME280;23188;51.188;16.374;2023-01-28T17:33:56;101354.92;;;0.65;83.42
37304;BME280;23188;51.188;16.374;2023-01-28T17:37:59;101359.08;;;0.74;83.27
37304;BME280;23188;51.188;16.374;2023-01-28T17:42:02;101359.69;;;0.78;82.27
37304;BME280;23188;51.188;16.374;2023-01-28T17:46:25;101366.83;;;0.79;81.67
37304;BME280;23188;51.188;16.374;2023-01-28T17:50:28;101383.46;;;0.85;82.32
37304;BME280;23188;51.188;16.374;2023-01-28T17:54:32;101385.58;;;0.76;80.71
37304;BME280;23188;51.188;16.374;2023-01-28T17:58:36;101380.52;;;0.76;80.23
37304;BME280;23188;51.188;16.374;2023-01-28T18:02:39;101379.83;;;0.76;79.72
37304;BME280;23188;51.188;16.374;2023-01-28T18:06:42;101380.99;;;0.70;78.40
37304;BME280;23188;51.188;16.374;2023-01-28T18:10:46;101383.45;;;0.62;78.08
37304;BME280;23188;51.188;16.374;2023-01-28T18:15:14;101388.08;;;0.58;78.95
37304;BME280;23188;51.188;16.374;2023-01-28T18:19:17;101395.13;;;0.55;76.31
37304;BME280;23188;51.188;16.374;2023-01-28T18:23:20;101405.45;;;0.54;77.90
37304;BME280;23188;51.188;16.374;2023-01-28T18:27:52;101410.13;;;0.63;79.95
37304;BME280;23188;51.188;16.374;2023-01-28T18:31:56;101411.45;;;0.75;79.80
37304;BME280;23188;51.188;16.374;2023-01-28T18:36:00;101416.83;;;0.84;79.44
37304;BME280;23188;51.188;16.374;2023-01-28T18:40:03;101422.32;;;0.81;79.04
37304;BME280;23188;51.188;16.374;2023-01-28T18:49:03;101418.89;;;0.78;78.25
37304;BME280;23188;51.188;16.374;2023-01-28T18:53:06;101420.67;;;0.76;77.38
37304;BME280;23188;51.188;16.374;2023-01-28T18:57:34;101419.80;;;0.68;75.96
37304;BME280;23188;51.188;16.374;2023-01-28T19:01:37;101421.75;;;0.59;77.33
37304;BME280;23188;51.188;16.374;2023-01-28T19:05:41;101426.11;;;0.59;77.56
37304;BME280;23188;51.188;16.374;2023-01-28T19:09:44;101423.36;;;0.57;78.18
37304;BME280;23188;51.188;16.374;2023-01-28T19:13:47;101428.30;;;0.55;77.35
37304;BME280;23188;51.188;16.374;2023-01-28T19:17:50;101428.64;;;0.55;78.00
37304;BME280;23188;51.188;16.374;2023-01-28T19:21:53;101433.95;;;0.60;78.84
37304;BME280;23188;51.188;16.374;2023-01-28T19:25:56;101441.48;;;0.50;80.32
37304;BME280;23188;51.188;16.374;2023-01-28T19:29:59;101442.71;;;0.42;81.69
37304;BME280;23188;51.188;16.374;2023-01-28T19:34:02;101441.77;;;0.28;82.82
37304;BME280;23188;51.188;16.374;2023-01-28T19:38:05;101448.90;;;0.29;82.39
37304;BME280;23188;51.188;16.374;2023-01-28T19:48:00;101445.85;;;0.16;82.43
37304;BME280;23188;51.188;16.374;2023-01-28T19:52:10;101446.83;;;0.19;83.10
37304;BME280;23188;51.188;16.374;2023-01-28T19:56:14;101448.14;;;0.23;83.03
37304;BME280;23188;51.188;16.374;2023-01-28T20:00:17;101444.48;;;0.32;83.32
37304;BME280;23188;51.188;16.374;2023-01-28T20:04:21;101449.04;;;0.40;83.02
37304;BME280;23188;51.188;16.374;2023-01-28T20:08:25;101449.15;;;0.43;84.37
37304;BME280;23188;51.188;16.374;2023-01-28T20:12:27;101451.70;;;0.46;83.96
37304;BME280;23188;51.188;16.374;2023-01-28T20:16:33;101446.57;;;0.49;83.38
37304;BME280;23188;51.188;16.374;2023-01-28T20:20:36;101452.56;;;0.55;84.19
37304;BME280;23188;51.188;16.374;2023-01-28T20:24:39;101455.15;;;0.48;85.23
37304;BME280;23188;51.188;16.374;2023-01-28T20:28:42;101448.58;;;0.53;85.74
37304;BME280;23188;51.188;16.374;2023-01-28T20:32:45;101438.72;;;0.65;85.47
37304;BME280;23188;51.188;16.374;2023-01-28T20:36:47;101446.41;;;0.73;84.88
37304;BME280;23188;51.188;16.374;2023-01-28T20:40:50;101440.77;;;0.84;84.26
37304;BME280;23188;51.188;16.374;2023-01-28T20:44:58;101437.00;;;0.89;83.00
37304;BME280;23188;51.188;16.374;2023-01-28T20:49:01;101430.74;;;0.94;83.76
37304;BME280;23188;51.188;16.374;2023-01-28T20:53:09;101433.00;;;1.03;83.91
37304;BME280;23188;51.188;16.374;2023-01-28T20:57:12;101435.05;;;1.12;83.77
37304;BME280;23188;51.188;16.374;2023-01-28T21:01:20;101434.92;;;1.18;83.16
37304;BME280;23188;51.188;16.374;2023-01-28T21:05:23;101434.16;;;1.20;82.13
37304;BME280;23188;51.188;16.374;2023-01-28T21:09:28;101438.87;;;1.27;81.75
37304;BME280;23188;51.188;16.374;2023-01-28T21:13:30;101440.84;;;1.25;80.52
37304;BME280;23188;51.188;16.374;2023-01-28T21:22:50;101445.73;;;1.19;80.82
37304;BME280;23188;51.188;16.374;2023-01-28T21:26:53;101452.49;;;1.13;80.90
37304;BME280;23188;51.188;16.374;2023-01-28T21:35:44;101455.18;;;0.94;81.07
37304;BME280;23188;51.188;16.374;2023-01-28T21:40:17;101441.67;;;0.82;80.87
37304;BME280;23188;51.188;16.374;2023-01-28T21:44:20;101439.75;;;0.83;81.49
37304;BME280;23188;51.188;16.374;2023-01-28T21:48:24;101433.96;;;0.83;81.94
37304;BME280;23188;51.188;16.374;2023-01-28T21:52:27;101426.02;;;0.80;81.29
37304;BME280;23188;51.188;16.374;2023-01-28T21:56:30;101420.58;;;0.72;80.23
37304;BME280;23188;51.188;16.374;2023-01-28T22:01:07;101420.07;;;0.72;79.96
37304;BME280;23188;51.188;16.374;2023-01-28T22:05:10;101425.54;;;0.69;79.98
37304;BME280;23188;51.188;16.374;2023-01-28T22:09:13;101432.63;;;0.72;80.37
37304;BME280;23188;51.188;16.374;2023-01-28T22:13:16;101428.04;;;0.75;81.16
37304;BME280;23188;51.188;16.374;2023-01-28T22:17:22;101430.52;;;0.73;80.89
37304;BME280;23188;51.188;16.374;2023-01-28T22:21:26;101427.18;;;0.74;80.11
37304;BME280;23188;51.188;16.374;2023-01-28T22:25:36;101430.20;;;0.71;79.70
37304;BME280;23188;51.188;16.374;2023-01-28T22:29:39;101424.97;;;0.72;80.61
37304;BME280;23188;51.188;16.374;2023-01-28T22:33:46;101428.34;;;0.69;80.44
37304;BME280;23188;51.188;16.374;2023-01-28T22:37:48;101428.71;;;0.68;80.76
37304;BME280;23188;51.188;16.374;2023-01-28T22:41:51;101427.86;;;0.67;81.20
37304;BME280;23188;51.188;16.374;2023-01-28T22:45:58;101418.58;;;0.68;81.36
37304;BME280;23188;51.188;16.374;2023-01-28T22:50:01;101415.10;;;0.67;80.79
37304;BME280;23188;51.188;16.374;2023-01-28T22:54:04;101412.73;;;0.65;81.55
37304;BME280;23188;51.188;16.374;2023-01-28T22:58:32;101408.52;;;0.65;81.37
37304;BME280;23188;51.188;16.374;2023-01-28T23:02:35;101408.16;;;0.66;81.70
37304;BME280;23188;51.188;16.374;2023-01-28T23:06:39;101409.09;;;0.63;81.78
37304;BME280;23188;51.188;16.374;2023-01-28T23:10:47;101409.99;;;0.62;81.65
37304;BME280;23188;51.188;16.374;2023-01-28T23:14:51;101403.70;;;0.62;81.72
37304;BME280;23188;51.188;16.374;2023-01-28T23:19:15;101403.81;;;0.65;82.63
37304;BME280;23188;51.188;16.374;2023-01-28T23:24:19;101409.89;;;0.66;82.29
37304;BME280;23188;51.188;16.374;2023-01-28T23:28:25;101412.20;;;0.65;82.76
37304;BME280;23188;51.188;16.374;2023-01-28T23:32:59;101410.95;;;0.66;82.92
37304;BME280;23188;51.188;16.374;2023-01-28T23:37:05;101412.80;;;0.68;82.05
37304;BME280;23188;51.188;16.374;2023-01-28T23:41:10;101414.00;;;0.70;81.22
37304;BME280;23188;51.188;16.374;2023-01-28T23:45:13;101416.95;;;0.71;81.23
37304;BME280;23188;51.188;16.374;2023-01-28T23:49:19;101412.03;;;0.73;81.94
37304;BME280;23188;51.188;16.374;2023-01-28T23:53:22;101411.65;;;0.73;81.73
37304;BME280;23188;51.188;16.374;2023-01-28T23:57:25;101415.28;;;0.75;82.02
